Home   Weather   Brunswick Villa   Past weeks
Flag for USA

Past Weather in Brunswick Villa, Georgia, USA — Yesterday and Last 2 Weeks

Currently: 50 °F. Sunny. (Weather station: Waycross / Ware County - Ga, USA). See more current weather

Past Weather in Brunswick Villa — Graph

°F

Brunswick Villa Temperature Yesterday

Maximum temperature yesterday: 77 °F (at 2:55 pm)
Minimum temperature yesterday: 55 °F (at 5:35 am)
Average temperature yesterday: 62 °F

High & Low Weather Summary for the Past Weeks

 TemperatureHumidityPressure
High77 °F (Feb 23, 2:55 pm)98% (Feb 20, 6:35 am)30.36 "Hg (Feb 20, 6:35 am)
Low32 °F (Feb 20, 6:55 am)15% (Feb 19, 3:35 pm)29.62 "Hg (Feb 23, 3:35 pm)
Average56 °F74%30.06 "Hg
* Reported Feb 9 8:55 am — Feb 24 7:35 am, Brunswick Villa. Weather by CustomWeather, © 2024

Note: Actual official high and low records may vary slightly from our data, if they occured in-between our weather recording intervals... More about our weather records

Brunswick Villa Weather History for the Previous 24 Hours

Scroll right to see more
 ConditionsComfort  
Time TempWeatherWind HumidityBarometerVisibility
7:35 am
Sat, Feb 24
48 °FSunny.6 mph78%29.94 "Hg10 mi
7:15 am46 °FSunny.7 mph82%29.94 "Hg10 mi
6:55 am46 °FClear.7 mph81%29.93 "Hg10 mi
6:35 am47 °FClear.6 mph80%29.92 "Hg10 mi
5:55 am48 °FClear.5 mph75%29.90 "Hg10 mi
5:35 am48 °FClear.5 mph75%29.89 "Hg10 mi
4:55 am51 °FClear.6 mph66%29.87 "Hg10 mi
4:35 am51 °FClear.7 mph70%29.86 "Hg10 mi
4:15 am51 °FClear.7 mph70%29.86 "Hg10 mi
3:55 am52 °FClear.6 mph69%29.86 "Hg10 mi
3:35 am52 °FPassing clouds.7 mph70%29.85 "Hg10 mi
2:55 am52 °FPassing clouds.5 mph70%29.85 "Hg10 mi
2:35 am52 °FPassing clouds.6 mph70%29.85 "Hg10 mi
2:15 am53 °FClear.5 mph70%29.84 "Hg10 mi
1:55 am53 °FClear.5 mph69%29.84 "Hg10 mi
1:35 am53 °FClear.5 mph69%29.84 "Hg10 mi
1:15 am54 °FClear.5 mph66%29.83 "Hg10 mi
12:55 am54 °FClear.6 mph65%29.83 "Hg10 mi
12:15 am56 °FClear.5 mph64%29.82 "Hg10 mi
11:55 pm
Fri, Feb 23
56 °FClear.6 mph63%29.82 "Hg10 mi
11:35 pm57 °FClear.5 mph63%29.81 "Hg10 mi
10:55 pm58 °FClear.6 mph62%29.80 "Hg10 mi
10:35 pm59 °FClear.7 mph61%29.79 "Hg10 mi
10:15 pm60 °FClear.7 mph60%29.79 "Hg10 mi
9:35 pm61 °FClear.7 mph59%29.77 "Hg10 mi
8:55 pm62 °FClear.9 mph60%29.76 "Hg10 mi
8:35 pm63 °FClear.10 mph62%29.75 "Hg10 mi
7:55 pm64 °FClear.7 mph65%29.72 "Hg10 mi
6:35 pm65 °FClear.5 mph72%29.68 "Hg10 mi
6:15 pm67 °FSunny.7 mph70%29.67 "Hg10 mi
5:55 pm68 °FSunny.6 mph74%29.66 "Hg10 mi
5:35 pm68 °FSunny.6 mph75%29.65 "Hg10 mi
5:15 pm68 °FSunny.5 mph77%29.64 "Hg10 mi
4:55 pm67 °FSunny.6 mph81%29.64 "Hg10 mi
4:35 pm66 °FScattered clouds.5 mph93%29.64 "Hg10 mi
4:15 pm62 °FThundershowers. Cloudy.8 mph96%29.65 "Hg2 mi
3:35 pm73 °FBroken clouds.12 mph58%29.62 "Hg10 mi
2:55 pm77 °FPartly sunny.16 mph50%29.63 "Hg10 mi
2:35 pm74 °FPartly sunny.14 mph55%29.64 "Hg10 mi
2:15 pm74 °FScattered clouds.15 mph53%29.64 "Hg10 mi
1:55 pm75 °FScattered clouds.16 mph56%29.65 "Hg10 mi
1:35 pm75 °FPartly sunny.15 mph59%29.66 "Hg10 mi
1:15 pm72 °FCloudy.14 mph65%29.67 "Hg10 mi
12:55 pm72 °FMostly cloudy.21 mph68%29.67 "Hg10 mi
12:35 pm71 °FBroken clouds.20 mph76%29.68 "Hg10 mi
12:15 pm69 °FBroken clouds.17 mph94%29.69 "Hg10 mi
11:55 am67 °FMostly cloudy.14 mph96%29.71 "Hg10 mi
11:35 am65 °FCloudy.10 mph96%29.72 "Hg10 mi
10:55 am64 °FLight rain. Mostly cloudy.13 mph96%29.72 "Hg10 mi
10:15 am62 °FHeavy rain. Mostly cloudy.10 mph96%29.74 "Hg5 mi
9:55 am62 °FDrizzle. Cloudy.14 mph96%29.74 "Hg2 mi
9:35 am61 °FRain. Mostly cloudy.13 mph96%29.74 "Hg4 mi
8:55 am61 °FLight rain. Overcast.10 mph96%29.75 "Hg7 mi
8:35 am61 °FLight rain. Overcast.14 mph96%29.75 "Hg10 mi
8:15 am61 °FOvercast.10 mph95%29.76 "Hg10 mi
Weather by CustomWeather, © 2024

See weather overview